首页
METAR-TAF:

METAR-TAF

机场 :

Afonsos

里约热内卢, 里約熱內盧州, 巴西

纬度: 22-52S, 经度: 043-22W, 海拔: 34米

当前天气观测

该预报发布于1小时和24分钟前的11:00 UTC
风速3节,风向南转西南
温度 20°C
湿度 73%
气压 1025 hPa
能見度: 6000
阴天层高于2500英尺

METAR: SBAF 231100Z 21003KT 6000 OVC025 20/15 Q1025

时间: 09:24 (12:24 UTC)

预报

该预报发布于9小时和24分钟前的03:00 UTC
预报有效从23日的 06点(UTC)到 23日的 18点(UTC)
风速3节,风向西
能見度: 8000
散云层高于1500英尺
成为
从 23日的 10点(UTC)到 23日的 12点(UTC)
能见度10公里或以上
1500米以下无云,无积雨云

TAF: SBAF 230300Z 2306/2318 27003KT 8000 SCT015 TN16/2309Z TX27/2317Z BECMG 2310/2312 CAVOK RMK PCQ

超过4000个机场的气象观测和天气预报(METAR&TAF报告)。

可查询的气象台以黄色和红色小点在地图上表示。

将鼠标移到小点上方,可查看气象台名称。

然后点击查看天气观测和预报。

如需切换地图:点击带黑十字的绿色按钮放大地图;点击带横线的绿色按钮缩小地图;或者点击绿色箭头查看邻近地区的地图。


METAR-TAF: